Time;durP1;ratioP1;P1;durP2;ratioP2;P2;SDS_P1;SDS_P2;PMS_P1;PMS_P2;Temp;Humidity;BMP_temperature;BMP_pressure;BME280_temperature;BME280_humidity;BME280_pressure;Samples;Min_cycle;Max_cycle;Signal;HPM_P1;HPM_P2
2022/01/19 00:00:15;;;;;;;;;;;5.50;99.90;;;;;;5039272;28;19962;-78
2022/01/19 00:02:41;;;;;;;;;;;5.40;99.90;;;;;;5039548;28;20292;-78
2022/01/19 00:05:09;;;;;;;;;;;5.50;99.90;;;;;;5042274;28;19964;-78
2022/01/19 00:07:37;;;;;;;;;;;5.40;99.90;;;;;;5044441;28;20372;-79
2022/01/19 00:10:06;;;;;;;;;;;5.30;99.90;;;;;;5049724;28;19947;-78
2022/01/19 00:12:33;;;;;;;;;;;5.40;99.90;;;;;;5051904;28;19992;-79
2022/01/19 00:14:59;;;;;;;;;;;5.40;99.90;;;;;;5052251;28;19925;-78
2022/01/19 00:17:26;;;;;;;;;;;5.40;99.90;;;;;;5049042;28;19925;-77
2022/01/19 00:19:52;;;;;;;;;;;5.40;99.90;;;;;;5047654;28;19929;-79
2022/01/19 00:22:19;;;;;;;;;;;5.40;99.90;;;;;;5043137;28;19925;-78
2022/01/19 00:24:47;;;;;;;;;;;5.40;99.90;;;;;;5043750;28;19941;-80
2022/01/19 00:27:14;;;;;;;;;;;5.40;99.90;;;;;;5045364;28;19965;-79
2022/01/19 00:29:40;;;;;;;;;;;5.40;99.90;;;;;;5038768;28;20466;-79
2022/01/19 00:32:07;;;;;;;;;;;5.40;99.90;;;;;;5038445;28;20003;-79
2022/01/19 00:34:34;;;;;;;;;;;5.40;99.90;;;;;;5038634;28;20015;-79
2022/01/19 00:37:00;;;;;;;;;;;5.40;99.90;;;;;;5038468;28;20331;-78
2022/01/19 00:39:31;;;;;;;;;;;5.50;99.90;;;;;;5038166;28;20351;-80
2022/01/19 00:41:58;;;;;;;;;;;5.40;99.90;;;;;;5038198;28;19947;-79
2022/01/19 00:44:25;;;;;;;;;;;5.40;99.90;;;;;;5038228;28;20024;-79
2022/01/19 00:46:51;;;;;;;;;;;5.40;99.90;;;;;;5038609;28;19991;-79
2022/01/19 00:49:18;;;;;;;;;;;5.40;99.90;;;;;;5038786;28;20372;-79
2022/01/19 00:51:44;;;;;;;;;;;5.40;99.90;;;;;;5037973;28;20408;-81
2022/01/19 00:54:10;;;;;;;;;;;5.40;99.90;;;;;;5038089;28;19976;-79
2022/01/19 00:56:37;;;;;;;;;;;5.40;99.90;;;;;;5037884;28;19972;-79
2022/01/19 00:59:05;;;;;;;;;;;5.40;99.90;;;;;;5037763;28;19957;-78
2022/01/19 01:01:31;;;;;;;;;;;5.40;99.90;;;;;;5041663;28;19932;-79
2022/01/19 01:03:58;;;;;;;;;;;5.40;99.90;;;;;;5041798;28;19925;-80
2022/01/19 01:06:24;;;;;;;;;;;5.40;99.90;;;;;;5038245;28;20300;-80
2022/01/19 01:08:51;;;;;;;;;;;5.40;99.90;;;;;;5037915;28;19983;-79
2022/01/19 01:11:17;;;;;;;;;;;5.40;99.90;;;;;;5038081;28;19925;-80
2022/01/19 01:16:40;;;;;;;;;;;5.50;99.90;;;;;;5017592;28;19921;-78
2022/01/19 01:19:08;;;;;;;;;;;5.40;99.90;;;;;;5039690;28;19944;-79
2022/01/19 01:21:34;;;;;;;;;;;5.40;99.90;;;;;;5038007;28;19975;-78
2022/01/19 01:24:01;;;;;;;;;;;5.40;99.90;;;;;;5038133;28;19924;-78
2022/01/19 01:26:28;;;;;;;;;;;5.40;99.90;;;;;;5039979;28;19930;-79
2022/01/19 01:28:54;;;;;;;;;;;5.50;99.90;;;;;;5038857;28;20411;-80
2022/01/19 01:31:21;;;;;;;;;;;5.40;99.90;;;;;;5037410;28;20007;-80
2022/01/19 01:33:48;;;;;;;;;;;5.40;99.90;;;;;;5037170;28;20376;-80
2022/01/19 01:36:15;;;;;;;;;;;5.40;99.90;;;;;;5036087;28;20024;-78
2022/01/19 01:38:42;;;;;;;;;;;5.40;99.90;;;;;;5036622;28;19960;-79
2022/01/19 01:41:12;;;;;;;;;;;5.40;99.90;;;;;;5036534;28;19925;-79
2022/01/19 01:43:39;;;;;;;;;;;5.40;99.90;;;;;;5043028;28;19925;-77
2022/01/19 01:46:11;;;;;;;;;;;5.40;99.90;;;;;;5048003;28;19925;-78
2022/01/19 01:48:42;;;;;;;;;;;5.40;99.90;;;;;;5046810;28;19932;-78
2022/01/19 01:53:55;;;;;;;;;;;5.40;99.90;;;;;;5047719;28;19959;-78
2022/01/19 01:56:22;;;;;;;;;;;5.30;99.90;;;;;;5049085;28;19932;-78
2022/01/19 01:58:49;;;;;;;;;;;5.30;99.90;;;;;;5046430;28;20387;-79
2022/01/19 02:01:17;;;;;;;;;;;5.40;99.90;;;;;;5039978;28;19932;-80
2022/01/19 02:03:44;;;;;;;;;;;5.40;99.90;;;;;;5038860;28;20396;-80
2022/01/19 02:06:29;;;;;;;;;;;5.30;99.90;;;;;;5037241;28;19964;-79
2022/01/19 02:09:01;;;;;;;;;;;5.30;99.90;;;;;;5036771;28;19932;-79
2022/01/19 02:15:48;;;;;;;;;;;5.40;99.90;;;;;;5036653;28;19925;-78
2022/01/19 02:22:50;;;;;;;;;;;5.40;99.90;;;;;;5036563;28;20027;-78
2022/01/19 02:25:17;;;;;;;;;;;5.40;99.90;;;;;;5036684;28;19976;-79
2022/01/19 02:31:20;;;;;;;;;;;5.40;99.90;;;;;;4994684;28;19922;-79
2022/01/19 02:36:51;;;;;;;;;;;5.40;99.90;;;;;;5036090;28;20398;-78
2022/01/19 02:42:04;;;;;;;;;;;5.40;99.90;;;;;;5035664;28;20419;-79
2022/01/19 02:46:31;;;;;;;;;;;5.40;99.90;;;;;;5036668;28;19925;-79
2022/01/19 02:50:05;;;;;;;;;;;5.40;99.90;;;;;;5020184;28;19921;-80
2022/01/19 02:52:32;;;;;;;;;;;5.40;99.90;;;;;;5036763;28;19948;-80
2022/01/19 02:54:59;;;;;;;;;;;5.30;99.90;;;;;;5036939;28;19964;-79
2022/01/19 02:57:26;;;;;;;;;;;5.40;99.90;;;;;;5041750;28;19925;-78
2022/01/19 03:06:27;;;;;;;;;;;5.30;99.90;;;;;;5047867;28;19960;-78
2022/01/19 03:11:03;;;;;;;;;;;5.30;99.90;;;;;;5036249;28;19937;-79
2022/01/19 03:13:29;;;;;;;;;;;5.30;99.90;;;;;;5035466;28;20355;-80
2022/01/19 03:15:56;;;;;;;;;;;5.30;99.90;;;;;;5035773;28;19932;-79
2022/01/19 03:18:22;;;;;;;;;;;5.30;95.80;;;;;;5035992;28;19929;-79
2022/01/19 03:20:49;;;;;;;;;;;5.30;93.60;;;;;;5036268;28;19936;-80
2022/01/19 03:23:20;;;;;;;;;;;5.20;99.90;;;;;;5036577;28;19961;-79
2022/01/19 03:25:48;;;;;;;;;;;5.30;99.90;;;;;;5044614;28;19953;-78
2022/01/19 03:28:15;;;;;;;;;;;5.20;99.90;;;;;;5048751;28;19989;-77
2022/01/19 03:30:42;;;;;;;;;;;5.30;99.90;;;;;;5045633;28;19992;-79
2022/01/19 03:33:09;;;;;;;;;;;5.30;99.90;;;;;;5045953;28;19926;-78
2022/01/19 03:35:35;;;;;;;;;;;5.20;99.90;;;;;;5048885;28;19976;-78
2022/01/19 03:38:02;;;;;;;;;;;5.40;99.90;;;;;;5040571;28;20343;-79
2022/01/19 03:40:28;;;;;;;;;;;5.30;99.90;;;;;;5039271;28;19972;-79
2022/01/19 03:42:56;;;;;;;;;;;5.00;99.90;;;;;;5039498;28;19925;-79
2022/01/19 03:45:23;;;;;;;;;;;5.30;99.90;;;;;;5039364;28;19983;-79
2022/01/19 03:47:54;;;;;;;;;;;5.30;99.90;;;;;;5039264;28;19929;-78
2022/01/19 03:50:21;;;;;;;;;;;5.30;99.90;;;;;;5039252;28;19925;-79
2022/01/19 03:52:48;;;;;;;;;;;5.30;99.90;;;;;;5039449;28;20423;-79
2022/01/19 03:55:14;;;;;;;;;;;5.40;99.90;;;;;;5039198;28;19983;-79
2022/01/19 03:57:41;;;;;;;;;;;5.40;99.90;;;;;;5039549;28;19977;-79
2022/01/19 04:00:11;;;;;;;;;;;5.40;99.90;;;;;;5043282;28;19962;-78
2022/01/19 04:02:37;;;;;;;;;;;5.30;99.90;;;;;;5049069;28;19948;-77
2022/01/19 04:05:08;;;;;;;;;;;5.30;99.90;;;;;;5041546;28;19975;-79
2022/01/19 04:07:35;;;;;;;;;;;5.30;99.90;;;;;;5041182;28;19961;-79
2022/01/19 04:10:02;;;;;;;;;;;5.30;99.90;;;;;;5040032;28;19925;-79
2022/01/19 04:12:43;;;;;;;;;;;5.30;99.90;;;;;;5039548;28;19930;-78
2022/01/19 04:15:12;;;;;;;;;;;5.30;99.90;;;;;;5039436;28;19932;-79
2022/01/19 04:17:45;;;;;;;;;;;5.30;99.90;;;;;;5043215;28;19958;-78
2022/01/19 04:20:12;;;;;;;;;;;5.20;99.90;;;;;;5041902;28;19933;-79
2022/01/19 04:22:38;;;;;;;;;;;5.30;99.90;;;;;;5039623;28;19925;-79
2022/01/19 04:25:05;;;;;;;;;;;5.30;99.90;;;;;;5039195;28;20016;-79
2022/01/19 04:27:32;;;;;;;;;;;5.20;99.90;;;;;;5038742;28;19971;-79
2022/01/19 04:30:03;;;;;;;;;;;5.20;99.90;;;;;;5041427;28;19925;-78
2022/01/19 04:32:37;;;;;;;;;;;5.20;99.90;;;;;;5043145;28;19925;-79
2022/01/19 04:35:07;;;;;;;;;;;5.20;99.90;;;;;;5040076;28;19929;-79
2022/01/19 04:37:49;;;;;;;;;;;5.20;99.90;;;;;;5038987;28;19933;-78
2022/01/19 04:54:30;;;;;;;;;;;5.20;97.40;;;;;;5046382;28;19971;-79
2022/01/19 05:02:57;;;;;;;;;;;5.20;99.90;;;;;;5037283;28;19921;-79
2022/01/19 05:05:29;;;;;;;;;;;5.20;99.90;;;;;;5037995;28;20339;-78
2022/01/19 05:08:01;;;;;;;;;;;5.20;99.90;;;;;;5037985;28;19964;-79
2022/01/19 05:13:26;;;;;;;;;;;5.30;91.10;;;;;;5038086;28;19990;-79
2022/01/19 05:15:53;;;;;;;;;;;5.20;99.90;;;;;;5036980;28;19925;-79
2022/01/19 05:18:19;;;;;;;;;;;5.10;99.90;;;;;;5036890;28;19991;-79
2022/01/19 05:20:48;;;;;;;;;;;5.10;99.90;;;;;;5106690;22;19965;-79
2022/01/19 05:23:16;;;;;;;;;;;4.50;99.90;;;;;;5054008;28;19925;-80
2022/01/19 05:25:43;;;;;;;;;;;5.20;99.90;;;;;;5047556;28;19925;-79
2022/01/19 05:28:10;;;;;;;;;;;5.20;99.90;;;;;;5043553;28;19925;-79
2022/01/19 05:30:36;;;;;;;;;;;5.20;99.90;;;;;;5051014;28;19929;-80
2022/01/19 05:33:03;;;;;;;;;;;5.20;99.90;;;;;;5051042;28;19925;-80
2022/01/19 05:35:30;;;;;;;;;;;5.20;99.90;;;;;;5052732;28;19925;-79
2022/01/19 05:37:57;;;;;;;;;;;5.20;99.90;;;;;;5052988;28;19948;-80
2022/01/19 05:40:24;;;;;;;;;;;5.20;99.90;;;;;;5049408;28;19925;-79
2022/01/19 05:42:50;;;;;;;;;;;5.10;99.90;;;;;;5044954;28;19940;-84
2022/01/19 05:45:17;;;;;;;;;;;5.10;99.90;;;;;;5055004;28;19925;-79
2022/01/19 05:47:45;;;;;;;;;;;5.10;99.90;;;;;;5055295;28;19933;-79
2022/01/19 05:50:12;;;;;;;;;;;5.00;99.90;;;;;;5054289;28;19925;-81
2022/01/19 05:52:41;;;;;;;;;;;5.10;99.90;;;;;;5047495;28;19925;-82
2022/01/19 05:55:09;;;;;;;;;;;4.80;99.90;;;;;;5048433;28;20011;-81
2022/01/19 05:57:36;;;;;;;;;;;5.00;99.90;;;;;;5052226;28;19925;-81
2022/01/19 06:00:03;;;;;;;;;;;5.00;99.90;;;;;;5054615;28;19925;-80
2022/01/19 06:02:29;;;;;;;;;;;4.90;99.90;;;;;;5053940;28;19979;-80
2022/01/19 06:04:56;;;;;;;;;;;4.90;99.90;;;;;;5047693;28;19925;-78
2022/01/19 06:07:28;;;;;;;;;;;4.90;99.90;;;;;;5044068;28;19925;-80
2022/01/19 06:10:03;;;;;;;;;;;4.90;99.90;;;;;;5047077;28;19932;-78
2022/01/19 06:12:31;;;;;;;;;;;5.00;99.90;;;;;;5044320;28;20281;-79
2022/01/19 06:14:57;;;;;;;;;;;4.90;99.90;;;;;;5045474;28;19951;-80
2022/01/19 06:17:23;;;;;;;;;;;5.00;99.90;;;;;;5049303;28;19925;-80
2022/01/19 06:19:50;;;;;;;;;;;5.00;99.90;;;;;;5040503;28;19925;-81
2022/01/19 06:22:17;;;;;;;;;;;4.90;99.90;;;;;;5039099;28;19975;-81
2022/01/19 06:24:47;;;;;;;;;;;4.90;99.90;;;;;;5052301;28;19920;-80
2022/01/19 06:27:14;;;;;;;;;;;4.90;99.90;;;;;;5058771;28;19913;-81
2022/01/19 06:29:42;;;;;;;;;;;4.90;99.90;;;;;;5058816;28;19925;-82
2022/01/19 06:32:09;;;;;;;;;;;4.90;99.90;;;;;;5058553;28;19925;-82
2022/01/19 06:34:36;;;;;;;;;;;4.80;99.90;;;;;;5058900;28;19936;-80
2022/01/19 06:37:03;;;;;;;;;;;4.80;99.90;;;;;;5058804;28;19972;-80
2022/01/19 06:39:29;;;;;;;;;;;4.80;99.90;;;;;;5057850;28;19921;-80
2022/01/19 06:41:55;;;;;;;;;;;4.80;99.90;;;;;;5051239;28;19948;-79
2022/01/19 06:44:22;;;;;;;;;;;4.80;99.90;;;;;;5043188;28;20288;-79
2022/01/19 06:46:50;;;;;;;;;;;4.80;99.90;;;;;;5046444;28;19936;-81
2022/01/19 06:49:16;;;;;;;;;;;4.80;99.90;;;;;;5045217;28;19972;-79
2022/01/19 06:51:43;;;;;;;;;;;4.80;99.90;;;;;;5044663;28;19949;-80
2022/01/19 06:54:09;;;;;;;;;;;4.80;99.90;;;;;;5045318;28;19925;-80
2022/01/19 06:56:37;;;;;;;;;;;4.80;99.90;;;;;;5044640;28;19929;-80
2022/01/19 06:59:04;;;;;;;;;;;4.80;99.90;;;;;;5047249;28;19925;-80
2022/01/19 07:01:32;;;;;;;;;;;4.80;99.90;;;;;;5046412;28;19925;-82
2022/01/19 07:04:00;;;;;;;;;;;4.80;99.90;;;;;;5045306;28;19929;-79
2022/01/19 07:06:27;;;;;;;;;;;4.80;99.90;;;;;;5049389;28;19987;-79
2022/01/19 07:08:53;;;;;;;;;;;4.80;99.90;;;;;;5049684;28;19948;-81
2022/01/19 07:11:20;;;;;;;;;;;4.80;99.90;;;;;;5049272;28;19964;-82
2022/01/19 07:13:47;;;;;;;;;;;4.80;99.90;;;;;;5053579;28;19984;-78
2022/01/19 07:16:15;;;;;;;;;;;4.90;99.90;;;;;;5052992;28;19932;-80
2022/01/19 07:18:41;;;;;;;;;;;4.90;99.90;;;;;;5047161;28;19925;-79
2022/01/19 07:21:09;;;;;;;;;;;4.90;99.90;;;;;;5045045;28;19925;-79
2022/01/19 07:23:36;;;;;;;;;;;4.80;99.90;;;;;;5049504;28;20324;-79
2022/01/19 07:26:02;;;;;;;;;;;4.90;99.90;;;;;;5051994;28;19925;-82
2022/01/19 07:28:28;;;;;;;;;;;4.80;99.90;;;;;;5046602;28;19929;-83
2022/01/19 07:30:55;;;;;;;;;;;4.70;99.90;;;;;;5043642;28;19957;-82
2022/01/19 07:33:21;;;;;;;;;;;4.80;99.90;;;;;;5045941;28;20370;-79
2022/01/19 07:35:51;;;;;;;;;;;4.80;99.90;;;;;;5046806;28;19929;-81
2022/01/19 07:38:19;;;;;;;;;;;4.70;99.90;;;;;;5045078;28;19925;-80
2022/01/19 07:40:45;;;;;;;;;;;4.70;99.90;;;;;;5041780;28;19929;-82
2022/01/19 07:43:12;;;;;;;;;;;4.70;99.90;;;;;;5042496;28;19925;-81
2022/01/19 07:45:38;;;;;;;;;;;4.70;99.90;;;;;;5050730;28;19929;-79
2022/01/19 07:48:05;;;;;;;;;;;4.70;99.90;;;;;;5052920;28;19952;-81
2022/01/19 07:50:32;;;;;;;;;;;4.70;99.90;;;;;;5053932;28;19948;-81
2022/01/19 07:52:58;;;;;;;;;;;4.60;99.90;;;;;;5050299;28;19929;-81
2022/01/19 07:55:26;;;;;;;;;;;4.60;99.90;;;;;;5048297;28;19925;-81
2022/01/19 07:57:53;;;;;;;;;;;4.60;99.90;;;;;;5042469;28;19925;-80
2022/01/19 08:00:19;;;;;;;;;;;4.60;99.90;;;;;;5041243;28;19947;-79
2022/01/19 08:02:46;;;;;;;;;;;4.60;99.90;;;;;;5041932;28;19972;-82
2022/01/19 08:05:12;;;;;;;;;;;4.50;99.90;;;;;;5042812;28;20442;-82
2022/01/19 08:07:39;;;;;;;;;;;4.70;99.90;;;;;;5042203;28;20453;-80
2022/01/19 08:10:07;;;;;;;;;;;4.40;99.90;;;;;;5046765;28;19960;-78
2022/01/19 08:12:35;;;;;;;;;;;4.30;99.90;;;;;;5044586;28;19925;-79
2022/01/19 08:15:01;;;;;;;;;;;4.20;99.90;;;;;;5044966;28;19929;-81
2022/01/19 08:17:28;;;;;;;;;;;4.20;99.90;;;;;;5044129;28;19975;-81
2022/01/19 08:19:55;;;;;;;;;;;4.40;99.90;;;;;;5041203;28;20016;-81
2022/01/19 08:22:22;;;;;;;;;;;4.20;99.90;;;;;;5041923;28;20392;-80
2022/01/19 08:24:48;;;;;;;;;;;4.10;99.90;;;;;;5048434;28;19925;-80
2022/01/19 08:27:15;;;;;;;;;;;4.50;99.90;;;;;;5054510;28;19925;-81
2022/01/19 08:29:43;;;;;;;;;;;4.50;99.90;;;;;;5057178;28;19925;-79
2022/01/19 08:32:10;;;;;;;;;;;4.10;99.90;;;;;;5058960;28;19925;-78
2022/01/19 08:34:36;;;;;;;;;;;4.10;99.90;;;;;;5058527;28;19988;-80
2022/01/19 08:37:03;;;;;;;;;;;4.10;99.90;;;;;;5057135;28;19948;-81
2022/01/19 08:39:30;;;;;;;;;;;4.10;99.90;;;;;;5056124;28;19925;-81
2022/01/19 08:41:56;;;;;;;;;;;4.10;99.90;;;;;;5051756;28;20055;-82
2022/01/19 08:44:23;;;;;;;;;;;4.20;99.90;;;;;;5046320;28;19932;-81
2022/01/19 08:46:51;;;;;;;;;;;4.20;99.90;;;;;;5045517;28;19952;-81
2022/01/19 08:49:17;;;;;;;;;;;4.20;99.90;;;;;;5046642;28;19956;-79
2022/01/19 08:51:46;;;;;;;;;;;4.20;99.90;;;;;;5057040;28;19924;-82
2022/01/19 08:54:13;;;;;;;;;;;4.20;99.90;;;;;;5059168;28;19913;-81
2022/01/19 08:56:40;;;;;;;;;;;4.20;99.90;;;;;;5049645;28;19926;-81
2022/01/19 08:59:06;;;;;;;;;;;3.90;99.90;;;;;;5044832;28;19925;-81
2022/01/19 09:01:33;;;;;;;;;;;4.10;99.90;;;;;;5047583;28;19925;-81
2022/01/19 09:04:03;;;;;;;;;;;4.10;99.90;;;;;;5043630;28;19952;-82
2022/01/19 09:06:29;;;;;;;;;;;4.10;99.90;;;;;;5044136;28;19983;-81
2022/01/19 09:08:56;;;;;;;;;;;3.90;99.90;;;;;;5043482;28;19925;-81
2022/01/19 09:11:24;;;;;;;;;;;4.10;99.90;;;;;;5042106;28;19925;-83
2022/01/19 09:13:51;;;;;;;;;;;4.20;99.90;;;;;;5040641;28;19925;-82
2022/01/19 09:16:18;;;;;;;;;;;3.80;99.90;;;;;;5041170;28;19925;-82
2022/01/19 09:18:44;;;;;;;;;;;4.20;99.90;;;;;;5041439;28;19925;-81
2022/01/19 09:21:12;;;;;;;;;;;4.90;99.90;;;;;;5042026;28;20391;-81
2022/01/19 09:23:39;;;;;;;;;;;4.30;99.90;;;;;;5045043;28;19925;-80
2022/01/19 09:26:06;;;;;;;;;;;4.30;99.90;;;;;;5046133;28;20016;-82
2022/01/19 09:28:32;;;;;;;;;;;4.30;99.90;;;;;;5045731;28;19926;-79
2022/01/19 09:31:02;;;;;;;;;;;4.40;99.90;;;;;;5049496;28;20238;-81
2022/01/19 09:33:30;;;;;;;;;;;4.40;99.90;;;;;;5057879;28;20387;-81
2022/01/19 09:36:17;;;;;;;;;;;4.50;99.90;;;;;;5059702;28;19963;-80
2022/01/19 09:38:45;;;;;;;;;;;4.50;99.90;;;;;;5060078;28;19913;-80
2022/01/19 09:41:13;;;;;;;;;;;4.40;99.90;;;;;;5059461;28;19965;-82
2022/01/19 09:43:44;;;;;;;;;;;4.60;99.90;;;;;;5059458;28;19932;-80
2022/01/19 09:46:19;;;;;;;;;;;4.50;99.90;;;;;;5057719;28;19925;-80
2022/01/19 09:48:45;;;;;;;;;;;4.60;76.70;;;;;;5049191;28;19925;-81
2022/01/19 09:51:14;;;;;;;;;;;4.50;94.90;;;;;;5047664;28;19958;-80
2022/01/19 09:53:40;;;;;;;;;;;4.60;99.90;;;;;;5046178;28;19976;-80
2022/01/19 09:56:08;;;;;;;;;;;4.40;82.20;;;;;;5044539;28;19931;-80
2022/01/19 09:58:34;;;;;;;;;;;4.60;99.90;;;;;;5043201;28;19925;-80
2022/01/19 10:01:01;;;;;;;;;;;4.60;99.90;;;;;;5041249;28;19925;-80
2022/01/19 10:03:28;;;;;;;;;;;4.60;98.40;;;;;;5043010;28;19983;-81
2022/01/19 10:06:01;;;;;;;;;;;4.70;99.90;;;;;;5044006;28;19925;-80
2022/01/19 10:08:28;;;;;;;;;;;4.60;88.10;;;;;;5044612;28;19928;-79
2022/01/19 10:11:04;;;;;;;;;;;4.20;64.60;;;;;;5044427;28;19932;-79
2022/01/19 10:19:16;;;;;;;;;;;4.10;25.40;;;;;;5049492;28;19948;-79
2022/01/19 10:22:03;;;;;;;;;;;4.70;18.40;;;;;;5048309;28;19981;-81
2022/01/19 10:24:33;;;;;;;;;;;4.70;36.50;;;;;;5049445;28;20091;-79
2022/01/19 10:27:15;;;;;;;;;;;4.80;32.30;;;;;;5049018;28;19950;-79
2022/01/19 10:29:46;;;;;;;;;;;4.50;23.40;;;;;;5041376;28;19925;-80
2022/01/19 10:32:13;;;;;;;;;;;4.80;11.30;;;;;;5052219;28;19925;-79
2022/01/19 10:34:39;;;;;;;;;;;6.00;1.00;;;;;;5050742;28;19932;-78
2022/01/19 10:37:06;;;;;;;;;;;4.70;1.00;;;;;;5053847;28;19925;-78
2022/01/19 10:39:39;;;;;;;;;;;4.80;1.00;;;;;;5051922;28;19995;-78
2022/01/19 10:42:07;;;;;;;;;;;4.60;2.10;;;;;;5051977;28;19931;-80
2022/01/19 10:44:35;;;;;;;;;;;4.80;1.00;;;;;;5051166;28;19925;-81
2022/01/19 10:47:03;;;;;;;;;;;4.80;1.00;;;;;;5047349;28;19924;-79
2022/01/19 10:49:45;;;;;;;;;;;4.90;1.00;;;;;;5050159;28;19929;-78
2022/01/19 10:52:24;;;;;;;;;;;4.10;1.00;;;;;;5048560;28;19925;-79
2022/01/19 10:54:51;;;;;;;;;;;4.70;1.00;;;;;;5055707;28;19947;-80
2022/01/19 10:57:17;;;;;;;;;;;4.20;1.00;;;;;;5057613;28;19913;-80
2022/01/19 10:59:44;;;;;;;;;;;5.00;15.40;;;;;;5057293;28;19909;-80
2022/01/19 11:02:12;;;;;;;;;;;4.70;1.00;;;;;;5057190;28;19913;-79
2022/01/19 11:04:40;;;;;;;;;;;4.60;1.00;;;;;;5057209;28;19909;-79
2022/01/19 11:07:08;;;;;;;;;;;4.60;1.00;;;;;;5057737;28;19928;-80
2022/01/19 11:09:42;;;;;;;;;;;4.70;1.00;;;;;;5057572;28;19936;-81
2022/01/19 11:12:13;;;;;;;;;;;4.70;1.00;;;;;;5057276;28;19981;-79
2022/01/19 11:14:40;;;;;;;;;;;4.60;1.00;;;;;;5058133;28;19925;-81
2022/01/19 11:17:07;;;;;;;;;;;3.60;22.70;;;;;;5057719;28;19910;-79
2022/01/19 11:19:38;;;;;;;;;;;4.60;17.70;;;;;;5058333;28;19920;-79
2022/01/19 11:22:09;;;;;;;;;;;5.00;1.00;;;;;;5051710;22;20023;-78
2022/01/19 11:24:40;;;;;;;;;;;4.40;1.00;;;;;;5033400;28;19925;-77
2022/01/19 11:27:08;;;;;;;;;;;4.40;32.50;;;;;;5033229;28;19925;-77
2022/01/19 11:29:37;;;;;;;;;;;4.30;25.00;;;;;;5034232;28;19947;-78
2022/01/19 11:32:14;;;;;;;;;;;4.30;44.40;;;;;;5035603;28;19925;-77
2022/01/19 11:34:46;;;;;;;;;;;4.30;43.90;;;;;;5034027;28;20008;-77
2022/01/19 11:37:13;;;;;;;;;;;4.30;8.20;;;;;;5033477;28;19964;-77
2022/01/19 11:39:58;;;;;;;;;;;4.20;4.20;;;;;;5034440;28;20011;-77
2022/01/19 11:42:25;;;;;;;;;;;4.20;9.90;;;;;;5033385;28;19925;-77
2022/01/19 11:44:52;;;;;;;;;;;4.10;21.30;;;;;;5033498;28;20004;-77
2022/01/19 11:47:21;;;;;;;;;;;4.20;56.30;;;;;;5033783;28;20319;-77
2022/01/19 11:49:50;;;;;;;;;;;4.20;1.00;;;;;;5033444;28;20428;-77
2022/01/19 11:52:19;;;;;;;;;;;4.20;7.60;;;;;;5033687;28;19971;-78
2022/01/19 11:54:46;;;;;;;;;;;4.20;28.70;;;;;;5035061;28;20294;-77
2022/01/19 11:57:14;;;;;;;;;;;4.20;72.10;;;;;;5037975;28;19972;-77
2022/01/19 12:00:07;;;;;;;;;;;4.20;98.70;;;;;;5037359;28;19925;-78
2022/01/19 12:02:36;;;;;;;;;;;4.10;42.00;;;;;;4990837;28;19925;-78
2022/01/19 12:05:14;;;;;;;;;;;4.10;38.70;;;;;;5038185;28;19925;-78
2022/01/19 12:07:42;;;;;;;;;;;4.20;74.20;;;;;;5038074;28;19925;-78
2022/01/19 12:10:09;;;;;;;;;;;4.10;72.10;;;;;;5037901;28;19968;-77
2022/01/19 12:12:43;;;;;;;;;;;4.20;67.00;;;;;;5037773;28;19925;-77
2022/01/19 12:15:31;;;;;;;;;;;4.10;80.90;;;;;;5038070;28;19929;-78
2022/01/19 12:18:08;;;;;;;;;;;4.10;77.10;;;;;;5039457;28;20402;-78
2022/01/19 12:20:52;;;;;;;;;;;4.10;99.90;;;;;;5039368;28;19925;-78
2022/01/19 12:23:25;;;;;;;;;;;4.00;99.90;;;;;;5036986;28;19932;-78
2022/01/19 12:25:52;;;;;;;;;;;4.00;99.90;;;;;;5036782;28;19929;-77
2022/01/19 12:28:33;;;;;;;;;;;4.00;99.20;;;;;;5036853;28;19964;-78
2022/01/19 12:31:28;;;;;;;;;;;4.00;59.30;;;;;;5037813;28;20012;-78
2022/01/19 12:34:14;;;;;;;;;;;3.90;26.60;;;;;;5037562;28;19925;-77
2022/01/19 12:36:43;;;;;;;;;;;3.90;32.80;;;;;;5037237;28;19925;-78
2022/01/19 12:39:29;;;;;;;;;;;4.00;33.30;;;;;;5037468;28;19971;-78
2022/01/19 12:41:56;;;;;;;;;;;4.10;33.10;;;;;;5038452;28;19948;-79
2022/01/19 12:44:39;;;;;;;;;;;4.10;14.90;;;;;;5038331;28;20003;-79
2022/01/19 12:47:06;;;;;;;;;;;4.10;25.10;;;;;;5038733;28;19931;-77
2022/01/19 12:49:33;;;;;;;;;;;4.10;65.40;;;;;;5055534;28;19925;-78
2022/01/19 12:52:01;;;;;;;;;;;4.10;49.90;;;;;;5058114;28;19932;-78
2022/01/19 12:54:28;;;;;;;;;;;4.20;49.90;;;;;;5058855;28;19920;-78
2022/01/19 12:56:56;;;;;;;;;;;4.20;74.90;;;;;;5059656;28;19932;-78
2022/01/19 12:59:23;;;;;;;;;;;4.10;9.20;;;;;;5059116;28;19925;-78
2022/01/19 13:01:49;;;;;;;;;;;4.10;1.00;;;;;;5057481;28;19925;-78
2022/01/19 13:04:23;;;;;;;;;;;4.10;1.00;;;;;;5045958;28;19925;-78
2022/01/19 13:06:49;;;;;;;;;;;4.00;3.80;;;;;;5042772;28;20023;-78
2022/01/19 13:09:26;;;;;;;;;;;4.10;39.20;;;;;;5039551;28;19925;-79
2022/01/19 13:11:54;;;;;;;;;;;4.10;40.10;;;;;;5039900;28;19971;-76
2022/01/19 13:14:23;;;;;;;;;;;4.00;16.20;;;;;;5040090;28;19995;-77
2022/01/19 13:16:50;;;;;;;;;;;4.10;40.30;;;;;;5040886;28;20334;-78
2022/01/19 13:19:17;;;;;;;;;;;4.00;23.80;;;;;;5039141;28;19971;-79
2022/01/19 13:21:45;;;;;;;;;;;4.00;23.80;;;;;;5037741;28;19979;-78
2022/01/19 13:24:15;;;;;;;;;;;4.00;45.70;;;;;;5037550;28;19976;-79
2022/01/19 13:26:44;;;;;;;;;;;3.90;22.10;;;;;;5036849;28;20413;-79
2022/01/19 13:29:12;;;;;;;;;;;4.00;64.90;;;;;;5036934;28;19925;-78
2022/01/19 13:31:38;;;;;;;;;;;4.10;80.30;;;;;;5036116;28;19965;-78
2022/01/19 13:34:05;;;;;;;;;;;3.90;41.80;;;;;;5036755;28;19925;-78
2022/01/19 13:36:32;;;;;;;;;;;4.00;90.30;;;;;;5036469;28;19933;-78
2022/01/19 13:38:59;;;;;;;;;;;4.00;92.00;;;;;;5036055;28;19960;-78
2022/01/19 13:41:26;;;;;;;;;;;4.00;52.60;;;;;;5036455;28;19956;-78
2022/01/19 13:44:02;;;;;;;;;;;4.00;21.90;;;;;;5035583;28;19925;-79
2022/01/19 13:46:31;;;;;;;;;;;4.00;21.40;;;;;;5036830;28;20008;-78
2022/01/19 13:48:59;;;;;;;;;;;3.90;1.00;;;;;;5035996;28;19925;-77
2022/01/19 13:51:26;;;;;;;;;;;3.90;9.40;;;;;;5035680;28;19925;-78
2022/01/19 13:53:53;;;;;;;;;;;3.80;35.70;;;;;;5039441;28;19925;-78
2022/01/19 13:56:24;;;;;;;;;;;3.80;56.90;;;;;;5038890;28;20372;-77
2022/01/19 13:58:54;;;;;;;;;;;4.00;81.90;;;;;;5036994;28;19971;-77
2022/01/19 14:01:33;;;;;;;;;;;3.90;48.40;;;;;;5036927;28;20367;-77
2022/01/19 14:04:04;;;;;;;;;;;4.00;33.30;;;;;;5038688;28;19932;-77
2022/01/19 14:06:32;;;;;;;;;;;4.00;13.50;;;;;;5038887;28;19936;-78
2022/01/19 14:09:09;;;;;;;;;;;3.90;23.70;;;;;;5039399;28;19925;-78
2022/01/19 14:11:37;;;;;;;;;;;4.00;43.30;;;;;;5037276;28;19925;-77
2022/01/19 14:14:05;;;;;;;;;;;3.90;44.80;;;;;;5036897;28;19925;-78
2022/01/19 14:16:37;;;;;;;;;;;3.90;14.60;;;;;;5038473;28;19928;-78
2022/01/19 14:19:14;;;;;;;;;;;3.90;40.50;;;;;;5037016;28;20422;-78
2022/01/19 14:22:01;;;;;;;;;;;3.90;48.80;;;;;;5036580;28;19925;-77
2022/01/19 14:24:28;;;;;;;;;;;4.00;53.40;;;;;;5036476;28;20376;-79
2022/01/19 14:26:56;;;;;;;;;;;4.00;51.40;;;;;;5036514;28;19925;-78
2022/01/19 14:29:23;;;;;;;;;;;4.00;43.60;;;;;;5035866;28;19979;-78
2022/01/19 14:31:52;;;;;;;;;;;4.00;40.20;;;;;;5035496;28;19983;-80
2022/01/19 14:34:32;;;;;;;;;;;3.90;37.40;;;;;;5035850;28;19925;-78
2022/01/19 14:37:07;;;;;;;;;;;4.00;61.80;;;;;;5036627;28;21546;-78
2022/01/19 14:39:44;;;;;;;;;;;4.10;90.90;;;;;;5036673;28;19932;-77
2022/01/19 14:42:11;;;;;;;;;;;4.10;43.30;;;;;;5035638;28;19925;-79
2022/01/19 14:44:41;;;;;;;;;;;4.00;65.20;;;;;;5037110;28;19972;-77
2022/01/19 14:47:18;;;;;;;;;;;4.10;71.50;;;;;;5035426;28;19947;-78
2022/01/19 14:49:44;;;;;;;;;;;4.10;84.30;;;;;;5035918;28;19925;-78
2022/01/19 14:52:12;;;;;;;;;;;4.30;97.90;;;;;;5035041;28;20360;-79
2022/01/19 14:54:39;;;;;;;;;;;4.00;97.30;;;;;;5035878;28;20475;-78
2022/01/19 14:57:06;;;;;;;;;;;4.20;99.40;;;;;;5036207;28;19932;-78
2022/01/19 14:59:36;;;;;;;;;;;4.20;93.70;;;;;;5035920;28;19933;-78
2022/01/19 15:02:03;;;;;;;;;;;4.20;97.20;;;;;;5036337;28;19979;-78
2022/01/19 15:04:31;;;;;;;;;;;4.00;87.60;;;;;;5036164;28;19925;-78
2022/01/19 15:07:00;;;;;;;;;;;4.20;99.90;;;;;;5035718;28;19944;-78
2022/01/19 15:09:27;;;;;;;;;;;4.10;77.70;;;;;;5036214;28;19936;-78
2022/01/19 15:11:54;;;;;;;;;;;4.10;89.10;;;;;;5035736;28;19948;-78
2022/01/19 15:14:20;;;;;;;;;;;4.20;92.30;;;;;;5036868;28;20008;-78
2022/01/19 15:16:49;;;;;;;;;;;4.20;99.50;;;;;;5038710;28;20339;-78
2022/01/19 15:19:15;;;;;;;;;;;4.20;99.90;;;;;;5035823;28;19960;-78
2022/01/19 15:21:46;;;;;;;;;;;4.30;96.30;;;;;;5036441;28;19929;-78
2022/01/19 15:24:12;;;;;;;;;;;4.10;99.10;;;;;;5037771;28;20038;-78
2022/01/19 15:26:39;;;;;;;;;;;4.30;99.90;;;;;;5035715;28;19925;-77
2022/01/19 15:29:08;;;;;;;;;;;3.80;99.90;;;;;;5037353;28;19937;-78
2022/01/19 15:31:35;;;;;;;;;;;4.30;99.90;;;;;;5040804;28;19929;-78
2022/01/19 15:34:01;;;;;;;;;;;4.30;99.90;;;;;;5039170;28;19967;-78
2022/01/19 15:36:28;;;;;;;;;;;4.30;91.70;;;;;;5038879;28;20025;-79
2022/01/19 15:38:57;;;;;;;;;;;4.20;98.20;;;;;;5039027;28;19975;-78
2022/01/19 15:41:24;;;;;;;;;;;4.30;99.90;;;;;;5039336;28;19931;-79
2022/01/19 15:43:50;;;;;;;;;;;4.20;99.90;;;;;;5038500;28;20013;-78